Homebases

[av_textblock size=” font_color=” color=” av-medium-font-size=” av-small-font-size=” av-mini-font-size=” av_uid=’av-jyzuj987′ custom_class=” admin_preview_bg=”]
EBAW

EBAW 140520Z 13002KT CAVOK 02/M02 Q1031 NOSIG

TAF TAF EBAW 232300Z 2400/2412 25011KT 9999 SCT030

EHWO

EHWO 140525Z AUTO 11002KT 9999 BKN062 OVC068 00/M03 Q1031 BLU

TAF COR EHWO 140434Z 1405/1417 VRB02KT CAVOK BECMG 1408/1410 36005KT PROB30 TEMPO 1405/1417 4500 SHRA SCT020CB

EBBL

EBBL 140525Z VRB01KT 9999 BKN077 M01/M03 Q1031 BLU BLU

TAF EBBL 131541Z 1319/1407 35005KT 9999 FEW065 SCT085 BECMG 1319/1321 VRB03KT SCT050 PROB30 TEMPO 1402/1406 4000 BR

Always consult the official METAR resources.

[/av_textblock]

[av_textblock size=” font_color=” color=” av-desktop-hide=” av-medium-hide=” av-small-hide=” av-mini-hide=” av-medium-font-size=” av-small-font-size=” av-mini-font-size=” av_uid=’av-srtu’]


[/av_textblock]